Miami, Florida
Traffic Map
Current Weather Conditions
Miami, Florida
Scattered Clouds
Scattered Clouds
28°
Feels Like: 31°
Wind Chill: 28° Ceiling: Unl
Heat Index: 31° Visibility: 10mi
Dew Point: 24° Wind: 0mph
Humidity: 79% Direction: ° ()
Pressure: 30.01in Gusts: 0mph
Raw Report DataKMIA 280453Z 00000KT 10SM SCT250 28/24 A3001 RMK AO2 SLP161 T02780239 403390244
Traffic Incident Summary
Active as of:
Severity:
Category:
InformationThere was an issue retrieving the traffic information for this location. Please try a different location or try again shortly.
Advertisements
Track Severe Weather on mobile